Time;durP1;ratioP1;P1;durP2;ratioP2;P2;SDS_P1;SDS_P2;PMS_P1;PMS_P2;Temp;Humidity;BMP_temperature;BMP_pressure;BME280_temperature;BME280_humidity;BME280_pressure;Samples;Min_cycle;Max_cycle;Signal;HPM_P1;HPM_P2
2023/01/05 00:01:30;;;;;;;;;0.00;0.00;;;;;14.39;78.15;101979.47;5059614;28;45428;-77
2023/01/05 00:03:55;;;;;;;;;0.00;0.00;;;;;14.34;78.13;101970.16;5040968;28;48350;-77
2023/01/05 00:06:21;;;;;;;;;1.33;0.67;;;;;14.26;77.69;101965.50;5059697;28;45431;-81
2023/01/05 00:08:46;;;;;;;;;0.00;0.00;;;;;14.35;77.83;101972.69;5041977;28;45373;-78
2023/01/05 00:22:29;;;;;;;;;0.00;0.00;;;;;14.37;77.21;101981.44;5059333;28;45320;-75
2023/01/05 00:24:58;;;;;;;;;0.00;0.00;;;;;14.39;77.21;101994.66;5058764;28;46127;-77
2023/01/05 00:27:24;;;;;;;;;0.00;0.00;;;;;14.16;77.74;101951.25;5060039;28;45592;-76
2023/01/05 00:29:49;;;;;;;;;0.00;0.00;;;;;14.31;77.88;101982.84;5058794;28;45763;-76
2023/01/05 00:32:15;;;;;;;;;0.00;0.00;;;;;14.32;77.88;102002.41;5040791;28;45534;-76
2023/01/05 00:34:40;;;;;;;;;0.00;0.00;;;;;14.24;78.00;101971.00;5040606;28;47914;-76
2023/01/05 00:37:05;;;;;;;;;0.00;0.00;;;;;14.05;78.22;101952.25;5058454;28;45423;-76
2023/01/05 00:39:30;;;;;;;;;0.75;0.50;;;;;13.42;78.03;101834.06;5058601;28;45328;-76
2023/01/05 00:41:56;;;;;;;;;0.00;0.00;;;;;14.28;78.21;101971.56;5058813;28;45317;-80
2023/01/05 00:44:21;;;;;;;;;0.25;0.25;;;;;14.32;78.31;101989.88;5058632;28;45844;-75
2023/01/05 00:46:46;;;;;;;;;0.00;0.00;;;;;14.32;78.52;101984.53;5058548;28;45292;-77
2023/01/05 00:49:12;;;;;;;;;0.00;0.00;;;;;14.22;78.29;101972.97;5060330;28;45337;-76
2023/01/05 00:51:37;;;;;;;;;0.00;0.00;;;;;14.30;78.45;102002.53;5058343;28;52544;-75
2023/01/05 00:54:02;;;;;;;;;0.25;0.00;;;;;14.15;78.23;101974.50;5057841;28;61202;-75
2023/01/05 00:56:28;;;;;;;;;0.25;0.25;;;;;14.13;78.24;101971.09;5039487;28;45326;-76
2023/01/05 00:58:54;;;;;;;;;0.00;0.00;;;;;13.40;78.40;101846.66;5046920;28;45218;-77
2023/01/05 01:01:19;;;;;;;;;0.00;0.00;;;;;13.98;78.25;101948.41;5079284;28;45514;-75
2023/01/05 01:03:45;;;;;;;;;0.00;0.00;;;;;14.25;78.10;101993.25;5060103;28;47338;-77
2023/01/05 01:06:12;;;;;;;;;0.00;0.00;;;;;13.88;77.92;101935.03;5060207;28;45510;-75
2023/01/05 01:08:37;;;;;;;;;0.00;0.00;;;;;13.46;78.11;101862.19;5077167;28;45297;-75
2023/01/05 01:11:07;;;;;;;;;0.75;0.00;;;;;14.25;77.96;101990.56;5079071;28;45466;-76
2023/01/05 01:13:33;;;;;;;;;0.00;0.00;;;;;14.24;77.80;101997.75;5078439;28;46459;-74
2023/01/05 01:16:12;;;;;;;;;1.75;0.50;;;;;14.22;77.80;101999.72;5061577;28;46210;-76
2023/01/05 01:18:38;;;;;;;;;0.50;0.00;;;;;14.09;78.27;101969.69;5040018;28;45348;-75
2023/01/05 01:21:04;;;;;;;;;35.33;32.67;;;;;13.94;77.65;101937.13;5040038;28;45710;-74
2023/01/05 01:23:30;;;;;;;;;0.00;0.00;;;;;14.25;77.43;101986.06;5066266;28;46720;-74
2023/01/05 01:25:56;;;;;;;;;0.00;0.00;;;;;14.29;77.63;101986.63;5059602;28;45201;-74
2023/01/05 01:28:24;;;;;;;;;1.00;1.00;;;;;14.06;77.67;101945.91;5077972;28;45284;-76
2023/01/05 01:30:49;;;;;;;;;1.50;0.00;;;;;14.21;77.61;101973.09;5077264;28;45526;-75
2023/01/05 01:33:15;;;;;;;;;0.00;0.00;;;;;14.19;77.50;101967.88;5077750;28;45592;-75
2023/01/05 01:35:40;;;;;;;;;0.00;0.00;;;;;14.21;77.45;101971.25;5078089;28;45194;-75
2023/01/05 01:38:05;;;;;;;;;0.00;0.00;;;;;13.65;76.94;101878.28;5077812;28;45411;-75
2023/01/05 01:40:37;;;;;;;;;1.00;1.00;;;;;14.02;76.79;101955.19;5059838;28;45526;-74
2023/01/05 01:43:10;;;;;;;;;2.50;0.00;;;;;13.75;76.59;101914.84;5059391;28;48649;-75
2023/01/05 01:45:36;;;;;;;;;2.00;1.00;;;;;13.88;76.43;101932.34;5077919;28;45301;-74
2023/01/05 01:48:01;;;;;;;;;0.00;0.00;;;;;13.49;76.01;101869.91;5062095;28;53730;-76
2023/01/05 01:50:41;;;;;;;;;1.00;0.00;;;;;14.16;76.07;101984.19;5057643;28;45304;-74
2023/01/05 01:53:27;;;;;;;;;0.25;0.25;;;;;14.21;75.59;101987.31;5058530;28;46472;-75
2023/01/05 01:55:54;;;;;;;;;0.00;0.00;;;;;13.77;75.16;101924.44;5058428;28;45337;-74
2023/01/05 01:58:24;;;;;;;;;0.50;0.00;;;;;14.20;75.19;102001.66;5040105;28;45333;-74
2023/01/05 02:00:50;;;;;;;;;0.75;0.75;;;;;14.18;75.12;101992.94;5058751;28;45512;-72
2023/01/05 02:03:16;;;;;;;;;0.50;0.50;;;;;14.18;75.08;102008.97;5070353;28;46626;-74
2023/01/05 02:05:41;;;;;;;;;1.25;0.50;;;;;14.18;75.13;102003.63;5050408;28;45474;-76
2023/01/05 02:08:14;;;;;;;;;0.50;0.50;;;;;14.18;74.96;102008.97;5057491;28;45304;-77
2023/01/05 02:10:46;;;;;;;;;0.00;0.00;;;;;14.05;75.70;101970.13;5039360;28;45281;-75
2023/01/05 02:13:20;;;;;;;;;1.00;0.50;;;;;14.20;75.47;101998.13;5057103;28;45693;-75
2023/01/05 02:15:57;;;;;;;;;2.00;1.00;;;;;14.20;75.73;101999.00;5056947;28;45582;-75
2023/01/05 02:18:34;;;;;;;;;0.00;0.00;;;;;14.22;75.90;102004.22;5072594;28;45497;-75
2023/01/05 02:21:21;;;;;;;;;0.00;0.00;;;;;14.22;75.93;102010.44;5064737;28;45313;-74
2023/01/05 02:24:05;;;;;;;;;1.50;0.00;;;;;14.20;76.45;102001.66;5056966;28;46363;-75
2023/01/05 02:27:07;;;;;;;;;0.00;0.00;;;;;14.20;76.73;102004.34;5057437;28;45299;-76
2023/01/05 02:29:53;;;;;;;;;0.50;0.00;;;;;14.21;76.96;102008.69;5039278;28;45254;-76
2023/01/05 02:32:27;;;;;;;;;0.00;0.00;;;;;13.87;76.81;101951.19;5057296;28;45333;-74
2023/01/05 02:35:26;;;;;;;;;0.00;0.00;;;;;14.05;77.24;101978.97;5056961;28;45659;-74
2023/01/05 02:38:04;;;;;;;;;3.00;0.00;;;;;14.18;77.07;102008.97;5056170;28;45292;-75
2023/01/05 02:40:40;;;;;;;;;0.67;0.67;;;;;13.99;77.05;101987.53;5056557;28;45312;-75
2023/01/05 02:43:08;;;;;;;;;0.00;0.00;;;;;14.22;76.95;102015.78;5057205;28;45593;-75
2023/01/05 02:45:34;;;;;;;;;0.67;0.67;;;;;14.24;76.66;102020.97;5056537;28;46963;-75
2023/01/05 02:47:59;;;;;;;;;1.67;0.33;;;;;13.94;76.14;101963.03;5056771;28;45376;-76
2023/01/05 02:50:38;;;;;;;;;0.75;0.75;;;;;14.21;75.39;102011.38;5056542;28;45280;-76
2023/01/05 02:53:33;;;;;;;;;0.00;0.00;;;;;14.21;74.92;102018.56;5057045;28;45376;-76
2023/01/05 02:56:05;;;;;;;;;0.50;0.00;;;;;14.08;73.99;101996.56;5054204;28;45646;-74
2023/01/05 02:58:38;;;;;;;;;0.75;0.25;;;;;14.18;74.08;102013.47;5056573;28;45317;-74
2023/01/05 03:01:19;;;;;;;;;0.00;0.00;;;;;14.14;73.19;101990.69;5055419;28;45415;-73
2023/01/05 03:03:51;;;;;;;;;0.75;0.75;;;;;13.87;73.14;101956.56;5055512;28;45263;-74
2023/01/05 03:06:23;;;;;;;;;2.00;2.00;;;;;14.14;73.07;102004.03;5056167;28;46321;-75
2023/01/05 03:08:55;;;;;;;;;1.00;1.00;;;;;13.62;72.75;101915.97;5056510;28;45285;-75
2023/01/05 03:14:18;;;;;;;;;0.25;0.25;;;;;14.08;72.41;102001.94;5056755;28;45503;-75
2023/01/05 03:16:46;;;;;;;;;1.50;0.50;;;;;14.12;72.21;102014.88;5056079;28;45720;-74
2023/01/05 03:36:08;;;;;;;;;1.00;0.75;;;;;14.18;71.75;102014.31;5059862;28;45266;-75
2023/01/05 03:38:41;;;;;;;;;1.75;0.00;;;;;14.07;71.11;101985.03;5062639;28;45644;-75
2023/01/05 03:41:09;;;;;;;;;2.50;0.50;;;;;13.87;71.62;101945.84;5066289;28;45211;-75
2023/01/05 03:43:38;;;;;;;;;1.00;0.00;;;;;13.47;71.23;101879.06;5059736;28;45290;-75
2023/01/05 03:46:16;;;;;;;;;1.00;1.00;;;;;13.91;71.29;101960.63;5059511;28;45618;-75
2023/01/05 03:48:41;;;;;;;;;2.00;0.25;;;;;14.27;71.65;102036.75;5059212;28;46380;-75
2023/01/05 03:51:07;;;;;;;;;2.75;1.00;;;;;13.99;71.28;101976.84;5059544;28;45430;-76
2023/01/05 03:53:33;;;;;;;;;5.50;2.50;;;;;14.09;71.35;101983.06;5046343;28;45535;-75
2023/01/05 03:55:58;;;;;;;;;1.75;0.00;;;;;14.22;71.47;102010.44;5080039;28;45352;-75
2023/01/05 03:58:24;;;;;;;;;0.00;0.00;;;;;14.32;71.57;102021.97;5079129;28;45668;-75
2023/01/05 04:00:49;;;;;;;;;1.00;1.00;;;;;14.30;71.64;102023.09;5078006;28;45494;-74
2023/01/05 04:03:15;;;;;;;;;2.00;1.25;;;;;13.98;71.90;101983.16;5078197;28;45305;-75
2023/01/05 04:05:40;;;;;;;;;0.25;0.25;;;;;14.17;71.65;102017.16;5079283;28;50582;-74
2023/01/05 04:08:06;;;;;;;;;2.00;0.25;;;;;14.25;72.00;102026.19;5070308;28;46457;-76
2023/01/05 04:10:31;;;;;;;;;1.50;0.00;;;;;14.27;72.34;102031.41;5058845;28;45500;-76
2023/01/05 04:12:56;;;;;;;;;2.75;1.50;;;;;14.01;72.18;101996.25;5059062;28;45516;-74
2023/01/05 04:15:22;;;;;;;;;1.25;1.00;;;;;14.02;72.38;101991.78;5045641;28;45577;-76
2023/01/05 04:17:47;;;;;;;;;1.50;0.00;;;;;14.24;72.39;102029.84;5078891;27;46013;-75
2023/01/05 04:20:12;;;;;;;;;2.75;0.25;;;;;13.94;72.62;101977.25;5094743;27;45881;-75
2023/01/05 04:22:38;;;;;;;;;2.75;1.50;;;;;14.21;72.61;102030.09;5077937;28;45178;-75
2023/01/05 04:25:03;;;;;;;;;0.75;0.25;;;;;14.22;73.00;102025.63;5095453;27;45471;-76
2023/01/05 04:27:29;;;;;;;;;0.50;0.50;;;;;14.07;72.74;102003.75;5099378;27;46590;-74
2023/01/05 04:29:54;;;;;;;;;2.00;1.00;;;;;14.21;72.68;102022.06;5099149;27;45425;-73
2023/01/05 04:32:19;;;;;;;;;0.00;0.00;;;;;13.65;72.79;101931.72;5090815;27;45322;-74
2023/01/05 04:34:45;;;;;;;;;0.25;0.25;;;;;14.07;72.74;102001.09;5079434;28;45441;-75
2023/01/05 04:37:10;;;;;;;;;0.25;0.00;;;;;14.12;72.69;102006.88;5078675;27;46369;-75
2023/01/05 04:39:35;;;;;;;;;0.00;0.00;;;;;13.89;72.74;101965.28;5078094;27;60957;-74
2023/01/05 04:42:01;;;;;;;;;2.00;0.25;;;;;13.92;73.00;101971.19;5094584;27;45478;-75
2023/01/05 04:44:26;;;;;;;;;1.00;0.50;;;;;14.16;72.84;102018.97;5078974;28;45294;-75
2023/01/05 04:46:52;;;;;;;;;0.00;0.00;;;;;13.44;73.03;101900.69;5078610;27;46410;-74
2023/01/05 04:49:17;;;;;;;;;0.00;0.00;;;;;13.53;72.59;101908.72;5077301;28;45533;-76
2023/01/05 04:51:42;;;;;;;;;2.67;0.00;;;;;14.21;73.07;102026.59;5077414;28;45480;-73
2023/01/05 04:54:08;;;;;;;;;0.50;0.00;;;;;14.22;73.13;102036.31;5078724;28;45525;-76
2023/01/05 04:56:33;;;;;;;;;0.00;0.00;;;;;13.75;73.05;101947.78;5088063;27;48422;-75
2023/01/05 04:58:58;;;;;;;;;3.67;3.67;;;;;14.08;73.15;102002.78;5098967;27;45260;-75
2023/01/05 05:01:25;;;;;;;;;1.33;0.67;;;;;14.20;73.41;102017.72;5099134;27;45302;-76
2023/01/05 05:03:50;;;;;;;;;0.00;0.00;;;;;13.98;73.24;101992.03;5100317;27;45170;-76
2023/01/05 05:06:16;;;;;;;;;1.00;1.00;;;;;14.16;73.34;102027.00;5098579;27;47605;-76
2023/01/05 05:08:41;;;;;;;;;0.50;0.00;;;;;13.81;73.51;101963.25;5099036;27;45350;-76
2023/01/05 05:11:07;;;;;;;;;1.00;0.00;;;;;13.88;73.60;101980.47;5098962;27;45218;-76
2023/01/05 05:13:32;;;;;;;;;0.00;0.00;;;;;14.05;73.84;102008.41;5078944;27;45260;-75
2023/01/05 05:15:57;;;;;;;;;1.00;1.00;;;;;14.03;74.16;102005.00;5068843;27;45562;-76
2023/01/05 05:18:23;;;;;;;;;0.25;0.25;;;;;14.10;74.24;102010.66;5057282;28;61342;-75
2023/01/05 05:20:50;;;;;;;;;0.50;0.50;;;;;14.00;74.07;101999.91;5057924;28;45546;-75
2023/01/05 05:23:16;;;;;;;;;0.00;0.00;;;;;14.02;74.21;101995.31;5062708;28;45320;-76
2023/01/05 05:25:41;;;;;;;;;0.00;0.00;;;;;13.82;74.06;101977.50;5058657;28;46378;-74
2023/01/05 05:28:07;;;;;;;;;0.00;0.00;;;;;14.06;74.19;102012.75;5057821;28;45465;-75
2023/01/05 05:30:32;;;;;;;;;1.00;1.00;;;;;13.55;74.44;101946.84;5057765;28;45458;-74
2023/01/05 05:32:57;;;;;;;;;0.25;0.25;;;;;13.27;74.10;101884.31;5057653;28;45396;-75
2023/01/05 05:35:23;;;;;;;;;0.00;0.00;;;;;14.02;74.43;102030.06;5056762;28;62234;-75
2023/01/05 05:37:48;;;;;;;;;1.00;0.00;;;;;13.98;74.52;102012.56;5057220;28;45333;-74
2023/01/05 05:40:13;;;;;;;;;0.00;0.00;;;;;13.88;74.76;101996.50;5057489;28;45309;-75
2023/01/05 05:42:39;;;;;;;;;0.50;0.00;;;;;13.99;74.83;102014.25;5039021;28;45459;-74
2023/01/05 05:45:05;;;;;;;;;1.25;0.00;;;;;13.23;74.64;101890.06;5068608;28;50872;-75
2023/01/05 05:47:30;;;;;;;;;1.25;0.75;;;;;13.24;74.71;101889.94;5079613;28;45269;-74
2023/01/05 05:49:55;;;;;;;;;1.00;1.00;;;;;13.27;74.94;101899.50;5061904;28;45831;-74
2023/01/05 05:52:21;;;;;;;;;0.00;0.00;;;;;13.95;74.81;102012.84;5077948;28;45296;-76
2023/01/05 05:54:46;;;;;;;;;0.00;0.00;;;;;13.86;74.84;102005.66;5059371;28;47952;-75
2023/01/05 05:57:12;;;;;;;;;0.67;0.67;;;;;13.98;74.85;102020.59;5076180;28;46068;-75
2023/01/05 05:59:37;;;;;;;;;0.00;0.00;;;;;13.98;74.87;102021.44;5076462;28;45468;-76
2023/01/05 06:02:02;;;;;;;;;0.50;0.50;;;;;13.83;74.61;102001.44;5076801;28;45343;-76
2023/01/05 06:04:28;;;;;;;;;0.00;0.00;;;;;14.05;74.97;102032.47;5077240;28;45287;-75
2023/01/05 06:06:53;;;;;;;;;1.00;0.00;;;;;14.07;74.61;102030.50;5077393;28;45281;-76
2023/01/05 06:09:18;;;;;;;;;2.00;0.00;;;;;13.89;74.84;102006.22;5077186;28;56265;-75
2023/01/05 06:11:44;;;;;;;;;0.00;0.00;;;;;14.08;74.73;102042.03;5077978;28;45446;-76
2023/01/05 06:14:09;;;;;;;;;2.00;0.33;;;;;13.87;74.64;102010.88;5059700;28;58876;-73
2023/01/05 06:16:34;;;;;;;;;0.00;0.00;;;;;13.82;74.55;102028.28;5064740;28;45402;-76
2023/01/05 06:19:00;;;;;;;;;1.00;1.00;;;;;13.74;74.34;101990.69;5077211;27;45409;-77
2023/01/05 06:21:25;;;;;;;;;1.50;0.00;;;;;13.35;74.42;101924.53;5078521;27;45276;-75
2023/01/05 06:23:51;;;;;;;;;0.33;0.33;;;;;14.09;74.69;102057.09;5077205;27;46833;-77
2023/01/05 06:26:16;;;;;;;;;0.00;0.00;;;;;13.76;74.47;101994.06;5077236;27;45491;-74
2023/01/05 06:28:41;;;;;;;;;1.75;1.00;;;;;13.73;75.20;101997.00;5077048;27;45417;-76
2023/01/05 06:31:07;;;;;;;;;0.00;0.00;;;;;13.97;74.76;102043.81;5084300;27;45391;-74
2023/01/05 06:33:32;;;;;;;;;0.00;0.00;;;;;13.41;74.45;101949.88;5086497;27;46558;-76
2023/01/05 06:35:57;;;;;;;;;0.00;0.00;;;;;13.50;74.72;101961.59;5097402;27;45318;-78
2023/01/05 06:38:23;;;;;;;;;1.50;0.25;;;;;13.86;75.08;102029.72;5097819;27;45328;-75
2023/01/05 06:40:49;;;;;;;;;0.50;0.50;;;;;14.11;75.03;102068.50;5090923;27;45382;-76
2023/01/05 06:43:14;;;;;;;;;0.00;0.00;;;;;14.10;74.86;102059.63;5058476;28;48494;-76
2023/01/05 06:45:40;;;;;;;;;1.50;0.00;;;;;14.12;74.95;102084.41;5064254;27;45596;-76
2023/01/05 06:48:05;;;;;;;;;1.25;1.25;;;;;14.09;75.06;102063.31;5084484;27;45556;-76
2023/01/05 06:50:31;;;;;;;;;2.00;1.25;;;;;14.13;75.03;102064.72;5097506;27;45319;-76
2023/01/05 06:52:57;;;;;;;;;0.00;0.00;;;;;14.13;75.06;102075.41;5097219;27;45676;-76
2023/01/05 06:55:22;;;;;;;;;2.00;2.00;;;;;14.12;75.19;102071.03;5099779;27;45271;-75
2023/01/05 06:57:48;;;;;;;;;1.75;0.25;;;;;14.15;74.88;102078.78;5091877;27;45588;-73
2023/01/05 07:00:14;;;;;;;;;0.00;0.00;;;;;14.16;75.01;102079.66;5089152;27;45491;-74
2023/01/05 07:02:39;;;;;;;;;0.50;0.50;;;;;13.70;75.20;102004.31;5098254;27;48756;-76
2023/01/05 07:05:05;;;;;;;;;0.25;0.25;;;;;13.35;75.31;101937.06;5084948;28;45269;-77
2023/01/05 07:07:31;;;;;;;;;1.00;0.25;;;;;13.55;75.01;101975.41;5082567;28;45577;-73
2023/01/05 07:09:56;;;;;;;;;0.50;0.50;;;;;13.87;75.16;102031.41;5080084;27;45542;-78
2023/01/05 07:12:22;;;;;;;;;0.25;0.25;;;;;14.14;75.32;102069.09;5100776;27;45493;-72
2023/01/05 07:14:47;;;;;;;;;0.25;0.25;;;;;14.14;75.32;102066.41;5089272;27;45451;-75
2023/01/05 07:17:13;;;;;;;;;2.25;0.00;;;;;14.15;75.39;102067.25;5079948;27;45480;-76
2023/01/05 07:19:38;;;;;;;;;0.50;0.50;;;;;13.78;75.52;102008.13;5080485;28;45576;-76
2023/01/05 07:22:04;;;;;;;;;0.00;0.00;;;;;14.06;75.52;102052.03;5080162;27;46109;-78
2023/01/05 07:24:29;;;;;;;;;0.75;0.50;;;;;14.20;75.55;102065.00;5092455;27;45318;-75
2023/01/05 07:26:56;;;;;;;;;0.00;0.00;;;;;14.28;75.26;102090.13;5094968;27;45476;-78
2023/01/05 07:29:22;;;;;;;;;0.75;0.00;;;;;14.18;75.61;102066.97;5094324;27;45591;-73
2023/01/05 07:31:50;;;;;;;;;0.75;0.75;;;;;14.33;75.48;102070.97;5091738;27;46422;-75
2023/01/05 07:34:16;;;;;;;;;0.50;0.50;;;;;14.30;75.71;102082.81;5098943;27;45370;-79
2023/01/05 07:36:41;;;;;;;;;2.00;1.00;;;;;14.34;75.57;102077.19;5100763;27;45300;-77
2023/01/05 07:39:06;;;;;;;;;0.50;0.00;;;;;14.39;75.63;102081.13;5099653;27;45548;-78
2023/01/05 07:41:32;;;;;;;;;0.75;0.75;;;;;14.24;75.43;102059.28;5100228;27;46738;-75
2023/01/05 07:43:57;;;;;;;;;0.50;0.50;;;;;14.43;75.56;102082.59;5099994;27;45342;-76
2023/01/05 07:46:23;;;;;;;;;0.25;0.25;;;;;14.43;75.53;102079.06;5096294;27;53575;-76
2023/01/05 07:48:48;;;;;;;;;1.75;0.75;;;;;14.35;75.70;102079.72;5087927;27;45521;-74
2023/01/05 07:51:13;;;;;;;;;1.75;1.75;;;;;14.31;75.50;102064.91;5085707;27;46400;-77
2023/01/05 07:53:39;;;;;;;;;3.00;3.00;;;;;14.47;75.63;102085.84;5098504;27;45480;-75
2023/01/05 07:56:06;;;;;;;;;3.25;2.00;;;;;14.34;75.52;102063.81;5099887;27;45322;-74
2023/01/05 07:58:31;;;;;;;;;2.00;2.00;;;;;13.75;75.58;101961.13;5097195;27;45488;-77
2023/01/05 08:01:02;;;;;;;;;3.00;3.00;;;;;14.51;75.58;102097.97;5111776;27;45293;-75
2023/01/05 08:03:27;;;;;;;;;0.75;0.75;;;;;14.48;75.66;102087.53;5087057;27;45291;-75
2023/01/05 08:05:53;;;;;;;;;3.75;3.75;;;;;14.12;75.36;102027.41;5095305;27;45290;-74
2023/01/05 08:08:18;;;;;;;;;4.75;3.75;;;;;14.42;75.52;102082.72;5091373;27;47406;-76
2023/01/05 08:10:43;;;;;;;;;1.25;1.25;;;;;14.31;75.73;102051.53;5082404;27;61242;-75
2023/01/05 08:15:55;;;;;;;;;3.33;3.33;;;;;14.51;75.60;102090.78;5076188;27;45276;-76
2023/01/05 08:18:22;;;;;;;;;2.67;1.67;;;;;14.49;75.65;102086.56;5047968;28;45572;-75
2023/01/05 08:20:59;;;;;;;;;2.75;2.75;;;;;14.60;75.38;102110.50;5063431;27;48432;-74
2023/01/05 08:23:26;;;;;;;;;2.00;2.00;;;;;14.63;75.28;102102.25;5050593;28;45446;-77
2023/01/05 08:25:52;;;;;;;;;1.50;1.50;;;;;14.52;75.34;102075.56;5058838;28;45333;-77
2023/01/05 08:28:17;;;;;;;;;4.00;4.00;;;;;14.04;75.10;101996.00;5076706;28;45332;-77
2023/01/05 08:30:43;;;;;;;;;1.75;1.75;;;;;14.47;75.17;102077.81;5058393;28;46116;-75
2023/01/05 08:33:09;;;;;;;;;6.33;4.67;;;;;14.66;74.92;102099.28;5057348;28;45582;-77
2023/01/05 08:35:39;;;;;;;;;2.00;2.00;;;;;14.66;75.03;102104.63;5079028;28;45446;-79
2023/01/05 08:38:04;;;;;;;;;1.67;1.67;;;;;13.91;74.84;101982.03;5078757;28;45637;-78
2023/01/05 08:40:30;;;;;;;;;1.75;1.75;;;;;14.58;74.89;102089.25;5046839;28;47092;-78
2023/01/05 08:42:56;;;;;;;;;5.33;4.33;;;;;14.12;75.02;102012.22;5068243;28;45449;-80
2023/01/05 08:45:21;;;;;;;;;6.67;2.00;;;;;14.44;74.95;102083.44;5059320;28;45308;-77
2023/01/05 08:47:47;;;;;;;;;2.67;2.00;;;;;14.51;75.29;102084.59;5058345;28;45826;-76
2023/01/05 08:50:12;;;;;;;;;2.00;2.00;;;;;14.57;75.17;102090.22;5044528;28;47781;-76
2023/01/05 08:52:38;;;;;;;;;1.00;0.50;;;;;14.48;75.16;102088.38;5058865;28;45387;-75
2023/01/05 08:55:06;;;;;;;;;0.25;0.00;;;;;13.87;75.04;101972.59;5058571;28;45522;-77
2023/01/05 08:57:32;;;;;;;;;2.00;0.75;;;;;14.65;75.05;102104.78;5052923;28;45467;-76
2023/01/05 08:59:58;;;;;;;;;0.25;0.25;;;;;14.68;74.89;102102.66;5058676;28;46706;-80
2023/01/05 09:02:24;;;;;;;;;2.33;2.00;;;;;14.70;74.98;102100.69;5058935;28;45907;-76
2023/01/05 09:04:50;;;;;;;;;3.67;3.67;;;;;14.56;74.71;102067.13;5078580;28;45504;-72
2023/01/05 09:07:15;;;;;;;;;0.25;0.25;;;;;14.47;74.67;102049.22;5065299;28;45462;-74
2023/01/05 09:09:40;;;;;;;;;1.00;1.00;;;;;14.51;74.48;102060.50;5063091;28;45849;-75
2023/01/05 09:12:06;;;;;;;;;2.50;1.50;;;;;14.94;74.53;102108.34;5066056;28;45327;-74
2023/01/05 09:14:32;;;;;;;;;0.50;0.50;;;;;14.36;74.06;102017.19;5074909;28;45365;-77
2023/01/05 09:16:57;;;;;;;;;1.75;1.75;;;;;14.78;74.08;102078.56;5091126;27;45482;-76
2023/01/05 09:19:23;;;;;;;;;0.75;0.75;;;;;14.77;73.78;102080.41;5097972;27;46286;-79
2023/01/05 09:21:49;;;;;;;;;1.00;1.00;;;;;15.01;73.71;102105.94;5097868;27;45369;-76
2023/01/05 09:24:14;;;;;;;;;5.67;3.67;;;;;14.79;73.85;102065.03;5092632;27;45468;-74
2023/01/05 09:26:41;;;;;;;;;5.50;1.00;;;;;13.67;74.08;101865.63;5079841;27;45481;-76
2023/01/05 09:29:06;;;;;;;;;2.00;1.25;;;;;14.88;73.50;102058.88;5079418;27;47642;-76
2023/01/05 09:31:31;;;;;;;;;2.00;1.75;;;;;14.41;73.79;101990.03;5077289;28;46132;-76
2023/01/05 09:33:57;;;;;;;;;1.00;1.00;;;;;15.03;73.33;102083.41;5081430;27;45239;-77
2023/01/05 09:36:24;;;;;;;;;2.75;2.00;;;;;15.11;73.29;102093.41;5115539;27;45481;-77
2023/01/05 09:38:52;;;;;;;;;2.00;1.00;;;;;15.19;73.27;102114.97;5096450;27;46814;-76
2023/01/05 09:41:40;;;;;;;;;1.75;1.75;;;;;15.15;73.34;102118.94;5098268;27;45326;-77
2023/01/05 09:44:11;;;;;;;;;2.00;2.00;;;;;14.59;73.35;102013.31;5098366;27;45455;-76
2023/01/05 09:46:41;;;;;;;;;2.00;2.00;;;;;14.44;73.11;101990.66;5097335;27;45398;-77
2023/01/05 09:49:13;;;;;;;;;1.25;1.25;;;;;15.11;72.99;102093.41;5098396;27;45520;-76
2023/01/05 09:51:39;;;;;;;;;2.00;2.00;;;;;14.46;73.24;101979.81;5094927;27;46015;-76
2023/01/05 09:54:04;;;;;;;;;1.75;1.75;;;;;15.31;73.00;102127.25;5110943;27;45510;-76
2023/01/05 09:56:38;;;;;;;;;3.00;2.00;;;;;14.95;72.92;102061.81;5077935;27;45375;-75
2023/01/05 09:59:14;;;;;;;;;1.00;1.00;;;;;15.30;72.95;102114.00;5077509;28;45943;-77
2023/01/05 10:01:40;;;;;;;;;0.00;0.00;;;;;15.17;72.82;102093.69;5078011;28;45403;-76
2023/01/05 10:04:18;;;;;;;;;1.00;1.00;;;;;15.33;72.89;102111.88;5079434;27;45465;-77
2023/01/05 10:06:48;;;;;;;;;1.75;1.00;;;;;15.23;72.53;102097.66;5098629;27;45444;-76
2023/01/05 10:09:23;;;;;;;;;1.00;1.00;;;;;15.37;72.54;102115.13;5094882;27;45413;-76
2023/01/05 10:15:04;;;;;;;;;1.75;0.75;;;;;15.50;72.61;102113.00;5086528;27;45219;-76
2023/01/05 10:17:33;;;;;;;;;0.00;0.00;;;;;14.95;72.70;102029.69;5098703;27;45353;-77
2023/01/05 10:19:59;;;;;;;;;4.00;3.00;;;;;15.11;72.63;102077.34;5092473;27;47697;-74
2023/01/05 10:22:39;;;;;;;;;2.00;2.00;;;;;15.62;73.42;102137.88;5077263;27;45259;-76
2023/01/05 10:25:37;;;;;;;;;1.00;1.00;;;;;15.64;72.62;102139.41;5077382;27;45240;-77
2023/01/05 10:28:20;;;;;;;;;1.25;1.25;;;;;15.67;72.84;102132.91;5021392;28;45680;-75
2023/01/05 10:30:54;;;;;;;;;0.00;0.00;;;;;15.58;72.46;102112.28;5083383;27;47017;-76
2023/01/05 10:33:26;;;;;;;;;2.33;2.00;;;;;15.51;72.36;102106.66;5081662;27;45288;-78
2023/01/05 10:36:00;;;;;;;;;0.75;0.75;;;;;15.60;72.45;102110.31;5096531;27;45577;-78
2023/01/05 10:38:41;;;;;;;;;1.00;1.00;;;;;15.77;72.13;102133.72;5101069;27;45529;-78
2023/01/05 10:41:21;;;;;;;;;0.00;0.00;;;;;15.75;72.45;102136.56;5083992;27;45451;-77
2023/01/05 10:44:12;;;;;;;;;1.00;1.00;;;;;15.75;72.72;102130.34;5096847;27;45625;-78
2023/01/05 10:46:41;;;;;;;;;0.75;0.75;;;;;15.08;72.37;102013.34;5099594;27;45379;-77
2023/01/05 10:49:14;;;;;;;;;0.00;0.00;;;;;15.73;72.03;102102.84;5083969;27;45493;-78
2023/01/05 10:51:41;;;;;;;;;1.00;0.00;;;;;15.36;72.13;102036.56;5101197;27;45686;-76
2023/01/05 10:54:31;;;;;;;;;0.00;0.00;;;;;15.68;72.11;102087.19;5097542;27;45570;-77
2023/01/05 10:57:31;;;;;;;;;0.00;0.00;;;;;15.89;72.62;102112.97;5079890;28;45371;-77
2023/01/05 11:00:00;;;;;;;;;0.00;0.00;;;;;15.89;72.49;102113.81;5079449;27;45410;-80
2023/01/05 11:02:29;;;;;;;;;0.50;0.50;;;;;15.47;72.70;102036.41;5080434;27;45507;-77
2023/01/05 11:05:13;;;;;;;;;3.00;3.00;;;;;15.99;72.35;102106.56;5085828;27;45512;-76
2023/01/05 11:07:48;;;;;;;;;3.67;3.67;;;;;15.63;72.64;102045.72;5100038;27;45422;-77
2023/01/05 11:10:21;;;;;;;;;2.50;2.50;;;;;15.85;71.96;102055.25;5099765;27;45445;-77
2023/01/05 11:12:53;;;;;;;;;0.00;0.00;;;;;15.02;72.21;101920.19;5099660;27;46193;-78
2023/01/05 11:15:19;;;;;;;;;0.00;0.00;;;;;15.37;71.76;101957.00;5097214;27;45363;-77
2023/01/05 11:17:45;;;;;;;;;0.00;0.00;;;;;15.92;71.39;102057.19;5062221;28;45585;-76
2023/01/05 11:20:16;;;;;;;;;1.00;1.00;;;;;15.53;71.53;101989.41;5080569;28;45324;-78
2023/01/05 11:22:44;;;;;;;;;0.00;0.00;;;;;16.10;71.61;102082.25;5080392;28;45513;-77
2023/01/05 11:25:30;;;;;;;;;1.00;0.00;;;;;15.19;71.35;101912.22;5055206;28;46084;-77
2023/01/05 11:28:03;;;;;;;;;0.00;0.00;;;;;15.39;71.07;101936.28;5062413;28;45515;-79
2023/01/05 11:30:30;;;;;;;;;1.00;1.00;;;;;16.16;70.81;102051.28;5049197;28;45356;-78
2023/01/05 11:32:57;;;;;;;;;0.25;0.00;;;;;15.69;70.63;101970.91;5059716;28;45469;-79
2023/01/05 11:35:31;;;;;;;;;1.00;1.00;;;;;15.85;70.76;101988.22;5069233;28;45210;-78
2023/01/05 11:37:56;;;;;;;;;1.00;1.00;;;;;15.82;70.13;101987.50;5062367;28;45189;-78
2023/01/05 11:40:27;;;;;;;;;0.00;0.00;;;;;15.93;70.09;102018.66;5061657;28;45558;-78
2023/01/05 11:42:53;;;;;;;;;0.00;0.00;;;;;15.88;70.53;102002.16;5079152;28;47313;-76
2023/01/05 11:45:27;;;;;;;;;1.00;0.00;;;;;15.80;70.75;102005.56;5079065;28;45492;-77
2023/01/05 11:47:56;;;;;;;;;1.50;1.50;;;;;16.09;71.25;102064.47;5080570;28;45359;-75
2023/01/05 11:50:52;;;;;;;;;1.75;0.50;;;;;15.93;71.56;102045.47;5073294;28;45460;-82
2023/01/05 11:53:35;;;;;;;;;4.25;3.25;;;;;15.87;71.79;102035.34;5059453;28;47689;-81
2023/01/05 11:56:07;;;;;;;;;5.00;4.00;;;;;16.03;71.83;102062.38;5035194;28;45345;-81
2023/01/05 11:58:47;;;;;;;;;1.50;1.00;;;;;15.63;71.69;102003.69;5058434;28;45466;-78
2023/01/05 12:01:12;;;;;;;;;2.00;1.00;;;;;16.04;71.42;102060.53;5056564;28;45506;-75
2023/01/05 12:03:49;;;;;;;;;3.50;3.50;;;;;15.82;71.84;102017.00;5079378;28;46234;-76
2023/01/05 12:06:43;;;;;;;;;4.50;2.00;;;;;15.97;71.53;102051.38;5066525;28;45341;-78
2023/01/05 12:09:16;;;;;;;;;2.00;2.00;;;;;15.72;72.07;102009.97;5063557;28;45450;-78